sensor_id;sensor_type;location;lat;lon;timestamp;P1;durP1;ratioP1;P2;durP2;ratioP2
55067;SDS011;40965;52.368;9.712;2022-11-15T00:01:00;22.00;;;13.00;;
55067;SDS011;40965;52.368;9.712;2022-11-15T00:03:27;18.83;;;12.43;;
55067;SDS011;40965;52.368;9.712;2022-11-15T00:05:53;23.17;;;13.23;;
55067;SDS011;40965;52.368;9.712;2022-11-15T00:08:20;18.75;;;12.27;;
55067;SDS011;40965;52.368;9.712;2022-11-15T00:10:54;23.50;;;12.88;;
55067;SDS011;40965;52.368;9.712;2022-11-15T00:13:26;19.70;;;10.77;;
55067;SDS011;40965;52.368;9.712;2022-11-15T00:15:53;19.60;;;12.30;;
55067;SDS011;40965;52.368;9.712;2022-11-15T00:18:24;20.83;;;12.85;;
55067;SDS011;40965;52.368;9.712;2022-11-15T00:20:50;20.48;;;12.48;;
55067;SDS011;40965;52.368;9.712;2022-11-15T00:23:17;19.55;;;11.98;;
55067;SDS011;40965;52.368;9.712;2022-11-15T00:25:43;18.10;;;12.13;;
55067;SDS011;40965;52.368;9.712;2022-11-15T00:28:10;20.63;;;11.90;;
55067;SDS011;40965;52.368;9.712;2022-11-15T00:30:36;15.52;;;11.23;;
55067;SDS011;40965;52.368;9.712;2022-11-15T00:33:03;18.40;;;10.98;;
55067;SDS011;40965;52.368;9.712;2022-11-15T00:35:31;14.77;;;10.00;;
55067;SDS011;40965;52.368;9.712;2022-11-15T00:37:59;17.60;;;11.20;;
55067;SDS011;40965;52.368;9.712;2022-11-15T00:40:26;17.30;;;10.48;;
55067;SDS011;40965;52.368;9.712;2022-11-15T00:43:05;17.42;;;10.30;;
55067;SDS011;40965;52.368;9.712;2022-11-15T00:45:31;15.27;;;9.95;;
55067;SDS011;40965;52.368;9.712;2022-11-15T00:47:58;14.45;;;9.10;;
55067;SDS011;40965;52.368;9.712;2022-11-15T00:50:24;13.07;;;9.35;;
55067;SDS011;40965;52.368;9.712;2022-11-15T00:52:51;12.10;;;9.27;;
55067;SDS011;40965;52.368;9.712;2022-11-15T00:55:17;13.32;;;8.90;;
55067;SDS011;40965;52.368;9.712;2022-11-15T00:57:45;13.13;;;9.55;;
55067;SDS011;40965;52.368;9.712;2022-11-15T01:00:12;14.55;;;10.07;;
55067;SDS011;40965;52.368;9.712;2022-11-15T01:02:39;14.80;;;10.07;;
55067;SDS011;40965;52.368;9.712;2022-11-15T01:05:06;12.65;;;8.52;;
55067;SDS011;40965;52.368;9.712;2022-11-15T01:07:33;12.13;;;8.63;;
55067;SDS011;40965;52.368;9.712;2022-11-15T01:10:00;13.00;;;7.63;;
55067;SDS011;40965;52.368;9.712;2022-11-15T01:12:26;11.88;;;7.97;;
55067;SDS011;40965;52.368;9.712;2022-11-15T01:14:53;14.23;;;8.80;;
55067;SDS011;40965;52.368;9.712;2022-11-15T01:17:20;10.35;;;7.75;;
55067;SDS011;40965;52.368;9.712;2022-11-15T01:19:46;11.63;;;8.80;;
55067;SDS011;40965;52.368;9.712;2022-11-15T01:22:13;12.88;;;8.60;;
55067;SDS011;40965;52.368;9.712;2022-11-15T01:24:39;10.95;;;8.52;;
55067;SDS011;40965;52.368;9.712;2022-11-15T01:27:06;9.18;;;7.35;;
55067;SDS011;40965;52.368;9.712;2022-11-15T01:29:33;10.68;;;7.15;;
55067;SDS011;40965;52.368;9.712;2022-11-15T01:31:59;8.30;;;6.95;;
55067;SDS011;40965;52.368;9.712;2022-11-15T01:34:26;10.70;;;7.53;;
55067;SDS011;40965;52.368;9.712;2022-11-15T01:36:55;14.05;;;8.35;;
55067;SDS011;40965;52.368;9.712;2022-11-15T01:39:21;8.65;;;6.22;;
55067;SDS011;40965;52.368;9.712;2022-11-15T01:41:48;6.63;;;5.93;;
55067;SDS011;40965;52.368;9.712;2022-11-15T01:47:00;9.65;;;6.70;;
55067;SDS011;40965;52.368;9.712;2022-11-15T01:49:32;12.55;;;7.40;;
55067;SDS011;40965;52.368;9.712;2022-11-15T01:52:01;11.45;;;7.72;;
55067;SDS011;40965;52.368;9.712;2022-11-15T01:54:31;14.75;;;8.85;;
55067;SDS011;40965;52.368;9.712;2022-11-15T01:57:02;9.88;;;7.15;;
55067;SDS011;40965;52.368;9.712;2022-11-15T01:59:36;12.48;;;7.60;;
55067;SDS011;40965;52.368;9.712;2022-11-15T02:02:06;8.48;;;6.25;;
55067;SDS011;40965;52.368;9.712;2022-11-15T02:04:35;9.65;;;6.75;;
55067;SDS011;40965;52.368;9.712;2022-11-15T02:07:10;11.95;;;7.78;;
55067;SDS011;40965;52.368;9.712;2022-11-15T02:09:41;12.05;;;8.52;;
55067;SDS011;40965;52.368;9.712;2022-11-15T02:12:09;14.68;;;7.72;;
55067;SDS011;40965;52.368;9.712;2022-11-15T02:14:42;12.38;;;7.97;;
55067;SDS011;40965;52.368;9.712;2022-11-15T02:17:26;9.82;;;6.97;;
55067;SDS011;40965;52.368;9.712;2022-11-15T02:23:31;9.00;;;6.40;;
55067;SDS011;40965;52.368;9.712;2022-11-15T02:32:57;11.23;;;7.88;;
55067;SDS011;40965;52.368;9.712;2022-11-15T02:35:43;9.73;;;6.78;;
55067;SDS011;40965;52.368;9.712;2022-11-15T02:38:33;11.95;;;8.35;;
55067;SDS011;40965;52.368;9.712;2022-11-15T02:41:11;10.05;;;7.03;;
55067;SDS011;40965;52.368;9.712;2022-11-15T02:46:29;12.18;;;7.57;;
55067;SDS011;40965;52.368;9.712;2022-11-15T02:49:19;11.65;;;8.25;;
55067;SDS011;40965;52.368;9.712;2022-11-15T02:51:47;9.23;;;7.63;;
55067;SDS011;40965;52.368;9.712;2022-11-15T02:54:18;10.85;;;8.13;;
55067;SDS011;40965;52.368;9.712;2022-11-15T02:56:52;9.27;;;7.28;;
55067;SDS011;40965;52.368;9.712;2022-11-15T03:07:58;12.07;;;7.32;;
55067;SDS011;40965;52.368;9.712;2022-11-15T03:14:14;9.32;;;6.68;;
55067;SDS011;40965;52.368;9.712;2022-11-15T03:16:58;13.35;;;7.65;;
55067;SDS011;40965;52.368;9.712;2022-11-15T03:22:16;11.52;;;8.02;;
55067;SDS011;40965;52.368;9.712;2022-11-15T03:24:50;10.27;;;7.13;;
55067;SDS011;40965;52.368;9.712;2022-11-15T03:27:21;8.77;;;7.55;;
55067;SDS011;40965;52.368;9.712;2022-11-15T03:29:53;13.68;;;8.00;;
55067;SDS011;40965;52.368;9.712;2022-11-15T03:32:26;7.78;;;6.68;;
55067;SDS011;40965;52.368;9.712;2022-11-15T03:37:40;12.23;;;7.55;;
55067;SDS011;40965;52.368;9.712;2022-11-15T03:40:15;9.95;;;6.20;;
55067;SDS011;40965;52.368;9.712;2022-11-15T03:42:46;13.77;;;8.00;;
55067;SDS011;40965;52.368;9.712;2022-11-15T03:45:56;13.43;;;7.93;;
55067;SDS011;40965;52.368;9.712;2022-11-15T03:48:27;8.52;;;6.38;;
55067;SDS011;40965;52.368;9.712;2022-11-15T03:51:01;9.77;;;6.30;;
55067;SDS011;40965;52.368;9.712;2022-11-15T03:53:29;10.93;;;6.82;;
55067;SDS011;40965;52.368;9.712;2022-11-15T03:55:57;11.77;;;7.32;;
55067;SDS011;40965;52.368;9.712;2022-11-15T03:58:24;9.23;;;6.20;;
55067;SDS011;40965;52.368;9.712;2022-11-15T04:00:50;6.68;;;5.95;;
55067;SDS011;40965;52.368;9.712;2022-11-15T04:03:17;16.02;;;7.18;;
55067;SDS011;40965;52.368;9.712;2022-11-15T04:05:46;11.77;;;6.97;;
55067;SDS011;40965;52.368;9.712;2022-11-15T04:08:12;7.78;;;5.30;;
55067;SDS011;40965;52.368;9.712;2022-11-15T04:10:39;8.52;;;5.80;;
55067;SDS011;40965;52.368;9.712;2022-11-15T04:13:05;7.13;;;5.15;;
55067;SDS011;40965;52.368;9.712;2022-11-15T04:15:32;7.05;;;5.05;;
55067;SDS011;40965;52.368;9.712;2022-11-15T04:17:59;10.48;;;5.97;;
55067;SDS011;40965;52.368;9.712;2022-11-15T04:20:27;6.90;;;5.05;;
55067;SDS011;40965;52.368;9.712;2022-11-15T04:26:06;9.02;;;5.50;;
55067;SDS011;40965;52.368;9.712;2022-11-15T04:28:35;7.25;;;4.70;;
55067;SDS011;40965;52.368;9.712;2022-11-15T04:31:22;8.05;;;5.30;;
55067;SDS011;40965;52.368;9.712;2022-11-15T04:33:48;5.95;;;4.85;;
55067;SDS011;40965;52.368;9.712;2022-11-15T04:36:15;5.32;;;4.32;;
55067;SDS011;40965;52.368;9.712;2022-11-15T04:38:59;6.53;;;4.55;;
55067;SDS011;40965;52.368;9.712;2022-11-15T04:41:25;7.55;;;4.90;;
55067;SDS011;40965;52.368;9.712;2022-11-15T04:43:52;6.05;;;4.10;;
55067;SDS011;40965;52.368;9.712;2022-11-15T04:46:18;8.35;;;4.60;;
55067;SDS011;40965;52.368;9.712;2022-11-15T04:48:45;6.40;;;4.53;;
55067;SDS011;40965;52.368;9.712;2022-11-15T04:51:12;5.07;;;4.47;;
55067;SDS011;40965;52.368;9.712;2022-11-15T04:53:44;6.30;;;4.32;;
55067;SDS011;40965;52.368;9.712;2022-11-15T04:56:11;5.10;;;4.60;;
55067;SDS011;40965;52.368;9.712;2022-11-15T04:58:41;4.35;;;3.95;;
55067;SDS011;40965;52.368;9.712;2022-11-15T05:01:11;4.57;;;4.18;;
55067;SDS011;40965;52.368;9.712;2022-11-15T05:03:40;5.18;;;4.55;;
55067;SDS011;40965;52.368;9.712;2022-11-15T05:06:25;7.70;;;4.18;;
55067;SDS011;40965;52.368;9.712;2022-11-15T05:08:54;7.25;;;4.30;;
55067;SDS011;40965;52.368;9.712;2022-11-15T05:11:23;8.43;;;4.57;;
55067;SDS011;40965;52.368;9.712;2022-11-15T05:13:52;5.20;;;4.57;;
55067;SDS011;40965;52.368;9.712;2022-11-15T05:16:19;8.27;;;4.85;;
55067;SDS011;40965;52.368;9.712;2022-11-15T05:18:48;4.50;;;3.63;;
55067;SDS011;40965;52.368;9.712;2022-11-15T05:21:21;4.43;;;4.00;;
55067;SDS011;40965;52.368;9.712;2022-11-15T05:23:48;5.43;;;4.05;;
55067;SDS011;40965;52.368;9.712;2022-11-15T05:26:16;4.68;;;4.28;;
55067;SDS011;40965;52.368;9.712;2022-11-15T05:28:56;15.27;;;8.38;;
55067;SDS011;40965;52.368;9.712;2022-11-15T05:31:24;8.32;;;4.43;;
55067;SDS011;40965;52.368;9.712;2022-11-15T05:33:55;5.68;;;4.05;;
55067;SDS011;40965;52.368;9.712;2022-11-15T05:39:07;8.65;;;4.22;;
55067;SDS011;40965;52.368;9.712;2022-11-15T05:41:46;7.07;;;4.68;;
55067;SDS011;40965;52.368;9.712;2022-11-15T05:44:20;5.82;;;4.05;;
55067;SDS011;40965;52.368;9.712;2022-11-15T05:46:50;5.30;;;4.68;;
55067;SDS011;40965;52.368;9.712;2022-11-15T05:49:21;8.35;;;5.38;;
55067;SDS011;40965;52.368;9.712;2022-11-15T05:51:51;7.63;;;4.53;;
55067;SDS011;40965;52.368;9.712;2022-11-15T05:54:20;4.32;;;3.35;;
55067;SDS011;40965;52.368;9.712;2022-11-15T05:56:49;4.00;;;2.92;;
55067;SDS011;40965;52.368;9.712;2022-11-15T05:59:15;4.78;;;3.33;;
55067;SDS011;40965;52.368;9.712;2022-11-15T06:01:43;5.75;;;4.00;;
55067;SDS011;40965;52.368;9.712;2022-11-15T06:04:09;6.72;;;4.05;;
55067;SDS011;40965;52.368;9.712;2022-11-15T06:06:36;4.60;;;3.72;;
55067;SDS011;40965;52.368;9.712;2022-11-15T06:09:02;5.22;;;3.80;;
55067;SDS011;40965;52.368;9.712;2022-11-15T06:11:29;10.00;;;3.80;;
55067;SDS011;40965;52.368;9.712;2022-11-15T06:13:56;4.75;;;3.53;;
55067;SDS011;40965;52.368;9.712;2022-11-15T06:16:23;6.05;;;4.72;;
55067;SDS011;40965;52.368;9.712;2022-11-15T06:18:52;5.20;;;4.13;;
55067;SDS011;40965;52.368;9.712;2022-11-15T06:21:19;7.80;;;4.70;;
55067;SDS011;40965;52.368;9.712;2022-11-15T06:23:46;7.68;;;4.32;;
55067;SDS011;40965;52.368;9.712;2022-11-15T06:26:14;6.65;;;4.55;;
55067;SDS011;40965;52.368;9.712;2022-11-15T06:28:40;6.05;;;3.60;;
55067;SDS011;40965;52.368;9.712;2022-11-15T06:31:08;15.48;;;4.22;;
55067;SDS011;40965;52.368;9.712;2022-11-15T06:33:37;5.47;;;4.40;;
55067;SDS011;40965;52.368;9.712;2022-11-15T06:36:06;9.90;;;4.47;;
55067;SDS011;40965;52.368;9.712;2022-11-15T06:38:35;6.25;;;4.07;;
55067;SDS011;40965;52.368;9.712;2022-11-15T06:41:03;5.28;;;4.30;;
55067;SDS011;40965;52.368;9.712;2022-11-15T06:43:33;6.68;;;4.22;;
55067;SDS011;40965;52.368;9.712;2022-11-15T06:46:00;7.00;;;4.07;;
55067;SDS011;40965;52.368;9.712;2022-11-15T06:48:29;5.63;;;3.60;;
55067;SDS011;40965;52.368;9.712;2022-11-15T06:50:57;6.68;;;4.63;;
55067;SDS011;40965;52.368;9.712;2022-11-15T06:53:26;7.00;;;4.93;;
55067;SDS011;40965;52.368;9.712;2022-11-15T06:55:53;5.05;;;4.15;;
55067;SDS011;40965;52.368;9.712;2022-11-15T06:58:24;8.25;;;5.15;;
55067;SDS011;40965;52.368;9.712;2022-11-15T07:00:51;6.03;;;4.70;;
55067;SDS011;40965;52.368;9.712;2022-11-15T07:03:17;6.88;;;4.32;;
55067;SDS011;40965;52.368;9.712;2022-11-15T07:05:53;10.77;;;4.80;;
55067;SDS011;40965;52.368;9.712;2022-11-15T07:08:22;6.60;;;4.38;;
55067;SDS011;40965;52.368;9.712;2022-11-15T07:10:50;6.97;;;4.65;;
55067;SDS011;40965;52.368;9.712;2022-11-15T07:13:16;6.07;;;4.28;;
55067;SDS011;40965;52.368;9.712;2022-11-15T07:15:43;7.65;;;4.53;;
55067;SDS011;40965;52.368;9.712;2022-11-15T07:18:10;6.88;;;5.05;;
55067;SDS011;40965;52.368;9.712;2022-11-15T07:20:36;6.40;;;4.85;;
55067;SDS011;40965;52.368;9.712;2022-11-15T07:23:04;6.22;;;4.60;;
55067;SDS011;40965;52.368;9.712;2022-11-15T07:25:31;5.35;;;4.68;;
55067;SDS011;40965;52.368;9.712;2022-11-15T07:27:58;4.63;;;4.22;;
55067;SDS011;40965;52.368;9.712;2022-11-15T07:30:25;8.90;;;5.50;;
55067;SDS011;40965;52.368;9.712;2022-11-15T07:32:53;5.22;;;4.35;;
55067;SDS011;40965;52.368;9.712;2022-11-15T07:35:20;5.80;;;3.95;;
55067;SDS011;40965;52.368;9.712;2022-11-15T07:37:59;9.40;;;5.05;;
55067;SDS011;40965;52.368;9.712;2022-11-15T07:40:28;8.40;;;5.88;;
55067;SDS011;40965;52.368;9.712;2022-11-15T07:43:00;8.45;;;5.30;;
55067;SDS011;40965;52.368;9.712;2022-11-15T07:45:29;7.78;;;4.82;;
55067;SDS011;40965;52.368;9.712;2022-11-15T07:47:58;8.45;;;4.25;;
55067;SDS011;40965;52.368;9.712;2022-11-15T07:50:25;6.80;;;5.05;;
55067;SDS011;40965;52.368;9.712;2022-11-15T07:52:58;7.93;;;4.60;;
55067;SDS011;40965;52.368;9.712;2022-11-15T07:55:26;8.57;;;5.00;;
55067;SDS011;40965;52.368;9.712;2022-11-15T07:58:04;5.38;;;4.22;;
55067;SDS011;40965;52.368;9.712;2022-11-15T08:00:33;12.60;;;5.00;;
55067;SDS011;40965;52.368;9.712;2022-11-15T08:03:04;6.28;;;4.20;;
55067;SDS011;40965;52.368;9.712;2022-11-15T08:05:39;6.60;;;3.78;;
55067;SDS011;40965;52.368;9.712;2022-11-15T08:08:08;6.35;;;4.45;;
55067;SDS011;40965;52.368;9.712;2022-11-15T08:10:36;7.43;;;4.15;;
55067;SDS011;40965;52.368;9.712;2022-11-15T08:13:08;7.82;;;4.63;;
55067;SDS011;40965;52.368;9.712;2022-11-15T08:15:37;7.50;;;4.40;;
55067;SDS011;40965;52.368;9.712;2022-11-15T08:18:05;6.82;;;3.83;;
55067;SDS011;40965;52.368;9.712;2022-11-15T08:20:36;5.68;;;4.30;;
55067;SDS011;40965;52.368;9.712;2022-11-15T08:23:03;10.43;;;4.93;;
55067;SDS011;40965;52.368;9.712;2022-11-15T08:25:32;6.25;;;4.05;;
55067;SDS011;40965;52.368;9.712;2022-11-15T08:28:01;6.30;;;4.43;;
55067;SDS011;40965;52.368;9.712;2022-11-15T08:30:33;10.65;;;4.90;;
55067;SDS011;40965;52.368;9.712;2022-11-15T08:33:02;7.63;;;5.07;;
55067;SDS011;40965;52.368;9.712;2022-11-15T08:35:29;6.57;;;4.55;;
55067;SDS011;40965;52.368;9.712;2022-11-15T08:37:55;6.35;;;4.18;;
55067;SDS011;40965;52.368;9.712;2022-11-15T08:40:22;5.95;;;4.78;;
55067;SDS011;40965;52.368;9.712;2022-11-15T08:42:48;9.23;;;5.80;;
55067;SDS011;40965;52.368;9.712;2022-11-15T08:45:15;6.40;;;4.18;;
55067;SDS011;40965;52.368;9.712;2022-11-15T08:47:41;9.20;;;4.57;;
55067;SDS011;40965;52.368;9.712;2022-11-15T08:50:08;6.13;;;4.60;;
55067;SDS011;40965;52.368;9.712;2022-11-15T08:52:35;11.93;;;4.90;;
55067;SDS011;40965;52.368;9.712;2022-11-15T08:55:01;7.35;;;5.10;;
55067;SDS011;40965;52.368;9.712;2022-11-15T08:57:30;7.20;;;4.43;;
55067;SDS011;40965;52.368;9.712;2022-11-15T08:59:57;13.80;;;6.03;;
55067;SDS011;40965;52.368;9.712;2022-11-15T09:02:23;8.32;;;4.97;;
55067;SDS011;40965;52.368;9.712;2022-11-15T09:04:50;4.65;;;4.15;;
55067;SDS011;40965;52.368;9.712;2022-11-15T09:07:17;7.20;;;4.43;;
55067;SDS011;40965;52.368;9.712;2022-11-15T09:09:44;8.98;;;4.53;;
55067;SDS011;40965;52.368;9.712;2022-11-15T09:12:10;5.13;;;3.00;;
55067;SDS011;40965;52.368;9.712;2022-11-15T09:14:37;6.63;;;3.92;;
55067;SDS011;40965;52.368;9.712;2022-11-15T09:17:06;3.92;;;3.08;;
55067;SDS011;40965;52.368;9.712;2022-11-15T09:19:34;4.95;;;3.45;;
55067;SDS011;40965;52.368;9.712;2022-11-15T09:22:01;4.85;;;3.78;;
55067;SDS011;40965;52.368;9.712;2022-11-15T09:24:31;5.95;;;4.05;;
55067;SDS011;40965;52.368;9.712;2022-11-15T09:26:58;5.32;;;3.25;;
55067;SDS011;40965;52.368;9.712;2022-11-15T09:29:27;3.22;;;3.03;;
55067;SDS011;40965;52.368;9.712;2022-11-15T09:31:54;5.10;;;3.70;;
55067;SDS011;40965;52.368;9.712;2022-11-15T09:34:21;14.13;;;3.85;;
55067;SDS011;40965;52.368;9.712;2022-11-15T09:36:47;6.07;;;3.30;;
55067;SDS011;40965;52.368;9.712;2022-11-15T09:39:14;4.97;;;3.72;;
55067;SDS011;40965;52.368;9.712;2022-11-15T09:41:57;4.63;;;3.60;;
55067;SDS011;40965;52.368;9.712;2022-11-15T09:50:50;4.38;;;3.17;;
55067;SDS011;40965;52.368;9.712;2022-11-15T09:56:13;3.65;;;3.10;;
55067;SDS011;40965;52.368;9.712;2022-11-15T10:02:11;6.93;;;4.50;;
55067;SDS011;40965;52.368;9.712;2022-11-15T10:05:10;6.18;;;2.85;;
55067;SDS011;40965;52.368;9.712;2022-11-15T10:07:44;4.97;;;3.50;;
55067;SDS011;40965;52.368;9.712;2022-11-15T10:13:12;4.10;;;3.35;;
55067;SDS011;40965;52.368;9.712;2022-11-15T10:15:46;3.60;;;3.30;;
55067;SDS011;40965;52.368;9.712;2022-11-15T10:18:15;6.85;;;3.50;;
55067;SDS011;40965;52.368;9.712;2022-11-15T10:23:47;4.10;;;3.08;;
55067;SDS011;40965;52.368;9.712;2022-11-15T10:26:15;4.22;;;3.42;;
55067;SDS011;40965;52.368;9.712;2022-11-15T10:28:46;4.53;;;3.60;;
55067;SDS011;40965;52.368;9.712;2022-11-15T10:31:23;5.32;;;3.25;;
55067;SDS011;40965;52.368;9.712;2022-11-15T10:34:12;4.13;;;3.00;;
55067;SDS011;40965;52.368;9.712;2022-11-15T10:36:44;3.53;;;3.22;;
55067;SDS011;40965;52.368;9.712;2022-11-15T10:39:13;2.70;;;2.38;;
55067;SDS011;40965;52.368;9.712;2022-11-15T10:41:41;5.57;;;3.05;;
55067;SDS011;40965;52.368;9.712;2022-11-15T10:44:17;21.55;;;5.78;;
55067;SDS011;40965;52.368;9.712;2022-11-15T10:49:23;25.95;;;6.93;;
55067;SDS011;40965;52.368;9.712;2022-11-15T10:51:57;17.35;;;4.30;;
55067;SDS011;40965;52.368;9.712;2022-11-15T10:54:50;15.48;;;4.57;;
55067;SDS011;40965;52.368;9.712;2022-11-15T10:57:22;6.22;;;3.22;;
55067;SDS011;40965;52.368;9.712;2022-11-15T10:59:56;5.50;;;3.20;;
55067;SDS011;40965;52.368;9.712;2022-11-15T11:02:31;2.35;;;2.15;;
55067;SDS011;40965;52.368;9.712;2022-11-15T11:08:03;2.78;;;2.50;;
55067;SDS011;40965;52.368;9.712;2022-11-15T11:10:31;3.20;;;2.20;;
55067;SDS011;40965;52.368;9.712;2022-11-15T11:13:13;4.45;;;2.55;;
55067;SDS011;40965;52.368;9.712;2022-11-15T11:15:47;3.67;;;2.45;;
55067;SDS011;40965;52.368;9.712;2022-11-15T11:21:40;3.40;;;2.33;;
55067;SDS011;40965;52.368;9.712;2022-11-15T11:27:09;3.25;;;2.95;;
55067;SDS011;40965;52.368;9.712;2022-11-15T11:29:58;2.53;;;2.10;;
55067;SDS011;40965;52.368;9.712;2022-11-15T11:47:55;7.82;;;2.63;;
55067;SDS011;40965;52.368;9.712;2022-11-15T11:50:33;3.85;;;2.58;;
55067;SDS011;40965;52.368;9.712;2022-11-15T11:56:14;2.60;;;2.00;;
55067;SDS011;40965;52.368;9.712;2022-11-15T11:59:09;2.28;;;2.08;;
55067;SDS011;40965;52.368;9.712;2022-11-15T12:02:15;4.25;;;3.17;;
55067;SDS011;40965;52.368;9.712;2022-11-15T12:04:52;2.53;;;2.35;;
55067;SDS011;40965;52.368;9.712;2022-11-15T12:07:31;4.22;;;2.55;;
55067;SDS011;40965;52.368;9.712;2022-11-15T12:10:05;3.55;;;2.55;;
55067;SDS011;40965;52.368;9.712;2022-11-15T12:13:07;4.63;;;2.78;;
55067;SDS011;40965;52.368;9.712;2022-11-15T12:15:44;3.53;;;2.65;;
55067;SDS011;40965;52.368;9.712;2022-11-15T12:18:18;5.10;;;3.03;;
55067;SDS011;40965;52.368;9.712;2022-11-15T12:20:53;1.90;;;1.80;;
55067;SDS011;40965;52.368;9.712;2022-11-15T12:23:28;3.42;;;2.45;;
55067;SDS011;40965;52.368;9.712;2022-11-15T12:26:02;2.50;;;2.20;;
55067;SDS011;40965;52.368;9.712;2022-11-15T12:28:50;4.32;;;1.80;;
55067;SDS011;40965;52.368;9.712;2022-11-15T12:31:23;4.28;;;2.22;;
55067;SDS011;40965;52.368;9.712;2022-11-15T12:34:03;2.13;;;2.03;;
55067;SDS011;40965;52.368;9.712;2022-11-15T12:36:42;4.30;;;2.88;;
55067;SDS011;40965;52.368;9.712;2022-11-15T12:39:11;2.67;;;2.47;;
55067;SDS011;40965;52.368;9.712;2022-11-15T12:41:40;3.55;;;2.35;;
55067;SDS011;40965;52.368;9.712;2022-11-15T13:02:55;2.50;;;1.75;;
55067;SDS011;40965;52.368;9.712;2022-11-15T13:05:52;2.15;;;1.83;;
55067;SDS011;40965;52.368;9.712;2022-11-15T13:08:37;2.13;;;1.90;;
55067;SDS011;40965;52.368;9.712;2022-11-15T13:11:55;2.30;;;2.13;;
55067;SDS011;40965;52.368;9.712;2022-11-15T13:19:45;4.13;;;2.25;;
55067;SDS011;40965;52.368;9.712;2022-11-15T13:22:14;3.00;;;2.80;;
55067;SDS011;40965;52.368;9.712;2022-11-15T13:27:27;2.63;;;2.42;;
55067;SDS011;40965;52.368;9.712;2022-11-15T13:29:53;4.15;;;2.25;;
55067;SDS011;40965;52.368;9.712;2022-11-15T13:32:20;3.05;;;2.42;;
55067;SDS011;40965;52.368;9.712;2022-11-15T13:34:48;3.28;;;2.25;;
55067;SDS011;40965;52.368;9.712;2022-11-15T13:39:47;4.70;;;2.45;;
55067;SDS011;40965;52.368;9.712;2022-11-15T13:42:18;2.97;;;2.70;;
55067;SDS011;40965;52.368;9.712;2022-11-15T13:44:56;3.92;;;2.70;;
55067;SDS011;40965;52.368;9.712;2022-11-15T13:47:27;5.20;;;3.03;;
55067;SDS011;40965;52.368;9.712;2022-11-15T13:49:56;2.45;;;2.10;;
55067;SDS011;40965;52.368;9.712;2022-11-15T13:52:28;3.90;;;2.13;;
55067;SDS011;40965;52.368;9.712;2022-11-15T13:55:03;2.55;;;2.35;;
55067;SDS011;40965;52.368;9.712;2022-11-15T13:57:45;4.55;;;2.80;;
55067;SDS011;40965;52.368;9.712;2022-11-15T14:00:26;4.47;;;2.50;;
55067;SDS011;40965;52.368;9.712;2022-11-15T14:06:07;3.47;;;3.10;;
55067;SDS011;40965;52.368;9.712;2022-11-15T14:08:41;4.72;;;2.78;;
55067;SDS011;40965;52.368;9.712;2022-11-15T14:11:24;3.50;;;3.00;;
55067;SDS011;40965;52.368;9.712;2022-11-15T14:14:04;3.70;;;1.90;;
55067;SDS011;40965;52.368;9.712;2022-11-15T14:30:38;2.22;;;1.52;;
55067;SDS011;40965;52.368;9.712;2022-11-15T14:33:21;2.38;;;2.17;;
55067;SDS011;40965;52.368;9.712;2022-11-15T14:35:53;5.05;;;2.05;;
55067;SDS011;40965;52.368;9.712;2022-11-15T14:38:20;5.93;;;1.98;;
55067;SDS011;40965;52.368;9.712;2022-11-15T14:40:47;2.65;;;2.17;;
55067;SDS011;40965;52.368;9.712;2022-11-15T14:43:14;3.10;;;2.00;;
55067;SDS011;40965;52.368;9.712;2022-11-15T14:45:41;4.57;;;2.13;;
55067;SDS011;40965;52.368;9.712;2022-11-15T14:48:08;3.17;;;2.30;;
55067;SDS011;40965;52.368;9.712;2022-11-15T14:50:35;4.22;;;2.63;;
55067;SDS011;40965;52.368;9.712;2022-11-15T14:53:02;2.78;;;2.60;;
55067;SDS011;40965;52.368;9.712;2022-11-15T14:55:30;2.35;;;2.13;;
55067;SDS011;40965;52.368;9.712;2022-11-15T14:58:04;2.47;;;2.08;;
55067;SDS011;40965;52.368;9.712;2022-11-15T15:00:33;3.65;;;1.98;;
55067;SDS011;40965;52.368;9.712;2022-11-15T15:03:02;3.30;;;2.38;;
55067;SDS011;40965;52.368;9.712;2022-11-15T15:08:02;2.13;;;1.92;;
55067;SDS011;40965;52.368;9.712;2022-11-15T15:10:31;1.88;;;1.73;;
55067;SDS011;40965;52.368;9.712;2022-11-15T15:13:01;4.60;;;2.10;;
55067;SDS011;40965;52.368;9.712;2022-11-15T15:15:31;5.60;;;2.40;;
55067;SDS011;40965;52.368;9.712;2022-11-15T15:18:01;2.80;;;2.60;;
55067;SDS011;40965;52.368;9.712;2022-11-15T15:20:30;3.92;;;2.28;;
55067;SDS011;40965;52.368;9.712;2022-11-15T15:22:58;3.25;;;2.90;;
55067;SDS011;40965;52.368;9.712;2022-11-15T15:25:27;4.03;;;2.72;;
55067;SDS011;40965;52.368;9.712;2022-11-15T15:27:56;5.10;;;2.50;;
55067;SDS011;40965;52.368;9.712;2022-11-15T15:30:24;4.50;;;3.05;;
55067;SDS011;40965;52.368;9.712;2022-11-15T15:32:52;3.13;;;2.75;;
55067;SDS011;40965;52.368;9.712;2022-11-15T15:35:19;7.80;;;2.55;;
55067;SDS011;40965;52.368;9.712;2022-11-15T15:37:46;3.20;;;2.90;;
55067;SDS011;40965;52.368;9.712;2022-11-15T15:40:16;5.78;;;3.22;;
55067;SDS011;40965;52.368;9.712;2022-11-15T15:42:48;4.55;;;2.50;;
55067;SDS011;40965;52.368;9.712;2022-11-15T15:45:15;3.22;;;2.67;;
55067;SDS011;40965;52.368;9.712;2022-11-15T15:47:43;3.30;;;2.72;;
55067;SDS011;40965;52.368;9.712;2022-11-15T15:52:46;4.72;;;2.60;;
55067;SDS011;40965;52.368;9.712;2022-11-15T15:55:12;3.63;;;2.38;;
55067;SDS011;40965;52.368;9.712;2022-11-15T15:57:39;3.95;;;2.28;;
55067;SDS011;40965;52.368;9.712;2022-11-15T16:00:05;8.02;;;3.22;;
55067;SDS011;40965;52.368;9.712;2022-11-15T16:02:33;3.35;;;3.05;;
55067;SDS011;40965;52.368;9.712;2022-11-15T16:04:59;2.42;;;2.30;;
55067;SDS011;40965;52.368;9.712;2022-11-15T16:07:26;3.78;;;2.67;;
55067;SDS011;40965;52.368;9.712;2022-11-15T16:09:54;3.03;;;2.33;;
55067;SDS011;40965;52.368;9.712;2022-11-15T16:14:56;2.33;;;2.10;;
55067;SDS011;40965;52.368;9.712;2022-11-15T16:17:23;3.22;;;2.45;;
55067;SDS011;40965;52.368;9.712;2022-11-15T16:19:53;2.78;;;2.10;;
55067;SDS011;40965;52.368;9.712;2022-11-15T16:22:20;3.90;;;2.90;;
55067;SDS011;40965;52.368;9.712;2022-11-15T16:24:46;4.38;;;2.50;;
55067;SDS011;40965;52.368;9.712;2022-11-15T16:27:16;5.97;;;2.85;;
55067;SDS011;40965;52.368;9.712;2022-11-15T16:29:45;3.55;;;2.17;;
55067;SDS011;40965;52.368;9.712;2022-11-15T16:32:13;3.28;;;2.35;;
55067;SDS011;40965;52.368;9.712;2022-11-15T16:34:40;4.15;;;2.97;;
55067;SDS011;40965;52.368;9.712;2022-11-15T16:37:21;4.35;;;3.10;;
55067;SDS011;40965;52.368;9.712;2022-11-15T16:39:49;3.33;;;2.85;;
55067;SDS011;40965;52.368;9.712;2022-11-15T16:42:16;8.27;;;3.08;;
55067;SDS011;40965;52.368;9.712;2022-11-15T16:44:42;4.10;;;3.70;;
55067;SDS011;40965;52.368;9.712;2022-11-15T16:47:13;5.70;;;3.42;;
55067;SDS011;40965;52.368;9.712;2022-11-15T16:49:44;5.57;;;2.67;;
55067;SDS011;40965;52.368;9.712;2022-11-15T16:52:10;6.55;;;3.13;;
55067;SDS011;40965;52.368;9.712;2022-11-15T16:54:37;4.60;;;3.47;;
55067;SDS011;40965;52.368;9.712;2022-11-15T16:57:03;6.07;;;3.60;;
55067;SDS011;40965;52.368;9.712;2022-11-15T16:59:30;6.32;;;3.47;;
55067;SDS011;40965;52.368;9.712;2022-11-15T17:01:57;6.43;;;4.13;;
55067;SDS011;40965;52.368;9.712;2022-11-15T17:04:23;12.13;;;3.72;;
55067;SDS011;40965;52.368;9.712;2022-11-15T17:06:55;8.05;;;4.95;;
55067;SDS011;40965;52.368;9.712;2022-11-15T17:09:21;10.35;;;4.95;;
55067;SDS011;40965;52.368;9.712;2022-11-15T17:11:48;11.98;;;5.38;;
55067;SDS011;40965;52.368;9.712;2022-11-15T17:14:15;15.23;;;5.43;;
55067;SDS011;40965;52.368;9.712;2022-11-15T17:16:42;11.82;;;5.35;;
55067;SDS011;40965;52.368;9.712;2022-11-15T17:19:19;8.65;;;5.72;;
55067;SDS011;40965;52.368;9.712;2022-11-15T17:21:46;10.63;;;7.13;;
55067;SDS011;40965;52.368;9.712;2022-11-15T17:24:14;9.60;;;5.80;;
55067;SDS011;40965;52.368;9.712;2022-11-15T17:26:41;12.25;;;8.25;;